Time;durP1;ratioP1;P1;durP2;ratioP2;P2;SDS_P1;SDS_P2;PMS_P1;PMS_P2;Temp;Humidity;BMP_temperature;BMP_pressure;BME280_temperature;BME280_humidity;BME280_pressure;Samples;Min_cycle;Max_cycle;Signal;HPM_P1;HPM_P2
2022/01/16 00:05:36;;;;;;;280.42;51.30;;;-2.50;99.90;;;;;;4846797;29;20053;-79
2022/01/16 00:08:23;;;;;;;641.92;67.35;;;-2.40;99.90;;;;;;4845934;29;20136;-81
2022/01/16 00:11:13;;;;;;;262.80;49.88;;;-2.40;99.90;;;;;;4862750;29;20140;-82
2022/01/16 00:14:02;;;;;;;276.85;49.78;;;-2.40;99.90;;;;;;4859417;29;20084;-82
2022/01/16 00:16:49;;;;;;;287.77;51.83;;;-2.40;99.90;;;;;;4835574;29;20456;-81
2022/01/16 00:19:37;;;;;;;246.27;47.35;;;-2.40;99.90;;;;;;4850978;29;20068;-81
2022/01/16 00:22:27;;;;;;;536.15;62.78;;;-2.40;99.90;;;;;;4863649;29;20200;-80
2022/01/16 00:25:19;;;;;;;270.38;51.33;;;-2.40;99.90;;;;;;4858358;29;20061;-80
2022/01/16 00:28:06;;;;;;;257.67;48.40;;;-2.40;99.90;;;;;;4848648;29;20076;-82
2022/01/16 00:30:53;;;;;;;412.42;59.75;;;-2.40;99.90;;;;;;4864014;29;20041;-81
2022/01/16 00:33:44;;;;;;;274.42;51.00;;;-2.40;99.90;;;;;;4849205;29;20196;-79
2022/01/16 00:36:35;;;;;;;198.80;47.53;;;-2.40;99.90;;;;;;4863665;29;20048;-79
2022/01/16 00:39:24;;;;;;;257.98;53.33;;;-2.40;99.90;;;;;;4847144;29;20177;-80
2022/01/16 00:42:30;;;;;;;346.45;54.85;;;-2.50;99.90;;;;;;4839449;29;20045;-80
2022/01/16 00:45:17;;;;;;;364.52;58.78;;;-2.50;99.90;;;;;;4848266;29;20144;-80
2022/01/16 00:48:06;;;;;;;275.35;55.72;;;-2.50;99.90;;;;;;4837874;29;20787;-82
2022/01/16 00:50:54;;;;;;;169.05;49.65;;;-2.50;99.90;;;;;;4862357;29;20069;-80
2022/01/16 00:53:43;;;;;;;252.35;53.30;;;-2.50;99.90;;;;;;4847845;29;20055;-81
2022/01/16 00:56:31;;;;;;;185.32;46.72;;;-2.40;99.90;;;;;;4851178;29;20050;-80
2022/01/16 00:59:19;;;;;;;173.10;48.10;;;-2.40;99.90;;;;;;4825318;29;20145;-81
2022/01/16 01:02:11;;;;;;;162.25;47.05;;;-2.40;99.90;;;;;;4837722;29;20101;-82
2022/01/16 01:04:58;;;;;;;301.27;53.20;;;-2.40;99.90;;;;;;4870126;29;20079;-81
2022/01/16 01:07:45;;;;;;;296.13;51.28;;;-2.50;99.90;;;;;;4863418;29;20053;-81
2022/01/16 01:10:49;;;;;;;176.60;48.72;;;-2.50;99.90;;;;;;4837313;29;20129;-81
2022/01/16 01:17:01;;;;;;;231.30;47.10;;;-2.50;99.90;;;;;;4862659;29;20054;-79
2022/01/16 01:20:14;;;;;;;291.05;47.17;;;-2.60;99.90;;;;;;4847131;29;20456;-80
2022/01/16 01:23:04;;;;;;;192.35;47.55;;;-2.60;99.90;;;;;;4850309;29;20061;-80
2022/01/16 01:25:52;;;;;;;159.40;41.45;;;-2.70;99.90;;;;;;4836714;29;20141;-79
2022/01/16 01:28:40;;;;;;;199.85;46.90;;;-2.70;99.90;;;;;;4857273;29;20053;-80
2022/01/16 01:31:30;;;;;;;182.68;45.35;;;-2.70;99.90;;;;;;4841944;29;20357;-79
2022/01/16 01:34:22;;;;;;;200.50;48.70;;;-2.80;99.90;;;;;;4850772;29;20045;-80
2022/01/16 01:37:09;;;;;;;171.77;45.75;;;-2.80;99.90;;;;;;4833952;29;20072;-80
2022/01/16 01:39:57;;;;;;;157.57;45.58;;;-2.80;99.90;;;;;;4847358;29;20125;-79
2022/01/16 01:42:51;;;;;;;144.63;43.17;;;-2.80;99.90;;;;;;4851177;29;20049;-81
2022/01/16 01:52:05;;;;;;;169.88;45.80;;;-2.80;99.90;;;;;;4840649;29;20069;-78
2022/01/16 01:54:55;;;;;;;147.68;45.00;;;-2.80;99.90;;;;;;4836592;29;20062;-80
2022/01/16 01:57:43;;;;;;;160.60;43.95;;;-2.80;99.90;;;;;;4868054;29;20511;-78
2022/01/16 02:00:30;;;;;;;169.73;47.83;;;-2.80;99.90;;;;;;4820206;29;20056;-80
2022/01/16 02:03:42;;;;;;;162.52;47.03;;;-2.80;99.90;;;;;;4842772;29;20060;-80
2022/01/16 02:06:31;;;;;;;197.98;49.65;;;-2.80;99.90;;;;;;4850688;29;20041;-80
2022/01/16 02:09:20;;;;;;;118.65;43.72;;;-2.80;99.90;;;;;;4840579;29;20052;-80
2022/01/16 02:12:09;;;;;;;122.32;43.38;;;-2.80;99.90;;;;;;4856701;29;20112;-80
2022/01/16 02:15:17;;;;;;;165.60;45.03;;;-2.80;99.90;;;;;;4848554;29;20164;-80
2022/01/16 02:36:32;;;;;;;113.03;40.83;;;-3.00;99.90;;;;;;4847003;29;20151;-80
2022/01/16 02:39:25;;;;;;;117.97;38.67;;;-3.00;99.90;;;;;;4856487;29;21364;-80
2022/01/16 02:42:24;;;;;;;117.25;41.88;;;-3.00;99.90;;;;;;4860001;29;20065;-81
2022/01/16 02:45:27;;;;;;;130.10;42.38;;;-3.00;99.90;;;;;;4848110;29;20061;-79
2022/01/16 02:48:15;;;;;;;106.05;30.05;;;-3.00;99.90;;;;;;4840496;29;20076;-79
2022/01/16 02:51:02;;;;;;;309.08;50.15;;;-3.10;99.90;;;;;;4844961;29;20049;-81
2022/01/16 02:53:54;;;;;;;137.00;41.58;;;-3.20;99.90;;;;;;4870093;29;20376;-79
2022/01/16 02:56:49;;;;;;;217.23;48.67;;;-3.20;99.90;;;;;;4858457;29;20061;-79
2022/01/16 02:59:38;;;;;;;297.42;50.67;;;-3.20;99.90;;;;;;4847275;29;20192;-81
2022/01/16 03:02:26;;;;;;;220.50;47.78;;;-3.30;99.90;;;;;;4848469;29;20101;-81
2022/01/16 03:05:14;;;;;;;341.85;53.75;;;-3.30;99.90;;;;;;4854588;29;20049;-81
2022/01/16 03:08:05;;;;;;;260.65;48.78;;;-3.30;99.90;;;;;;4851255;29;20133;-81
2022/01/16 03:13:43;;;;;;;281.25;50.58;;;-3.30;99.90;;;;;;4857914;29;20085;-79
2022/01/16 03:16:31;;;;;;;408.52;58.85;;;-3.30;99.90;;;;;;4857072;29;20064;-80
2022/01/16 03:22:28;;;;;;;194.45;45.15;;;-3.40;99.90;;;;;;4835098;29;20500;-79
2022/01/16 03:25:16;;;;;;;191.70;44.30;;;-3.40;99.90;;;;;;4846351;29;20132;-78
2022/01/16 03:28:06;;;;;;;248.85;49.83;;;-3.50;99.90;;;;;;4837128;29;20054;-80
2022/01/16 03:30:55;;;;;;;183.00;47.40;;;-3.50;99.90;;;;;;4859921;29;20411;-81
2022/01/16 03:33:45;;;;;;;229.15;48.00;;;-3.50;99.90;;;;;;4848764;29;20809;-79
2022/01/16 03:36:32;;;;;;;213.27;47.47;;;-3.60;99.90;;;;;;4857739;29;20117;-79
2022/01/16 03:39:20;;;;;;;155.45;45.33;;;-3.60;99.90;;;;;;4835160;29;20053;-79
2022/01/16 03:42:09;;;;;;;115.22;44.42;;;-3.70;99.90;;;;;;4857435;29;20179;-79
2022/01/16 03:44:59;;;;;;;112.50;40.40;;;-3.70;99.90;;;;;;4841524;29;20132;-79
2022/01/16 03:47:51;;;;;;;99.03;40.83;;;-3.70;99.90;;;;;;4846745;29;20049;-80
2022/01/16 03:50:39;;;;;;;158.02;34.50;;;-3.70;99.90;;;;;;4838166;29;20410;-82
2022/01/16 03:53:26;;;;;;;154.10;41.75;;;-3.70;99.90;;;;;;4843120;29;20107;-80
2022/01/16 03:56:13;;;;;;;176.80;41.60;;;-3.80;99.90;;;;;;4857456;29;20109;-79
2022/01/16 03:59:08;;;;;;;116.72;38.58;;;-3.80;99.90;;;;;;4850483;29;20054;-80
2022/01/16 04:01:57;;;;;;;113.75;37.88;;;-3.80;99.90;;;;;;4839369;29;20475;-81
2022/01/16 04:04:45;;;;;;;132.98;39.65;;;-3.80;99.90;;;;;;4821726;29;20060;-80
2022/01/16 04:07:35;;;;;;;109.95;42.95;;;-3.80;99.90;;;;;;4852016;29;20058;-81
2022/01/16 04:10:23;;;;;;;102.65;39.40;;;-3.80;99.90;;;;;;4844103;29;20060;-80
2022/01/16 04:13:15;;;;;;;90.63;38.45;;;-3.90;99.90;;;;;;4835886;29;20503;-79
2022/01/16 04:16:02;;;;;;;97.05;40.17;;;-4.00;99.90;;;;;;4847094;29;20803;-79
2022/01/16 04:18:51;;;;;;;107.85;39.80;;;-4.00;99.90;;;;;;4837687;29;20133;-81
2022/01/16 04:21:38;;;;;;;178.77;43.65;;;-4.10;99.90;;;;;;4866556;29;20166;-80
2022/01/16 04:24:26;;;;;;;129.27;40.88;;;-4.10;99.90;;;;;;4837819;29;20195;-79
2022/01/16 04:27:15;;;;;;;97.43;39.38;;;-4.10;99.90;;;;;;4849159;29;20057;-80
2022/01/16 04:30:04;;;;;;;92.25;38.03;;;-4.10;99.90;;;;;;4856204;29;20086;-80
2022/01/16 04:32:52;;;;;;;92.68;38.33;;;-4.20;99.90;;;;;;4867794;29;20254;-78
2022/01/16 04:35:40;;;;;;;91.53;38.63;;;-4.20;99.90;;;;;;4848849;29;20049;-82
2022/01/16 04:38:28;;;;;;;102.95;39.05;;;-4.30;99.90;;;;;;4834708;29;20046;-81
2022/01/16 04:44:43;;;;;;;99.15;37.28;;;-4.30;99.90;;;;;;4859210;29;20069;-81
2022/01/16 04:47:32;;;;;;;110.70;36.63;;;-4.30;99.90;;;;;;4831549;29;20121;-79
2022/01/16 04:50:22;;;;;;;128.57;38.78;;;-4.30;99.90;;;;;;4860703;29;20050;-79
2022/01/16 04:53:09;;;;;;;185.93;40.78;;;-4.30;99.90;;;;;;4870807;29;20475;-79
2022/01/16 04:56:00;;;;;;;84.72;34.03;;;-4.30;99.90;;;;;;4817771;29;20103;-78
2022/01/16 04:58:48;;;;;;;83.18;35.67;;;-4.30;99.90;;;;;;4821155;29;20050;-80
2022/01/16 05:01:36;;;;;;;72.78;32.15;;;-4.30;99.90;;;;;;4842604;29;20042;-78
2022/01/16 05:04:26;;;;;;;81.50;32.97;;;-4.50;99.90;;;;;;4824904;29;20504;-79
2022/01/16 05:07:13;;;;;;;119.03;37.03;;;-4.50;99.90;;;;;;4839111;29;20133;-81
2022/01/16 05:10:06;;;;;;;245.35;53.53;;;-4.50;99.90;;;;;;4849283;29;20053;-80
2022/01/16 05:13:04;;;;;;;128.48;42.25;;;-4.50;99.90;;;;;;4858380;29;20056;-78
2022/01/16 05:19:08;;;;;;;100.60;37.88;;;-4.60;99.90;;;;;;4847374;29;20053;-81
2022/01/16 05:21:59;;;;;;;91.07;36.63;;;-4.60;99.90;;;;;;4861769;29;20073;-78
2022/01/16 05:24:48;;;;;;;76.10;34.08;;;-4.60;99.90;;;;;;4853872;29;20050;-79
2022/01/16 05:27:36;;;;;;;71.93;34.65;;;-4.70;99.90;;;;;;4849961;29;20851;-80
2022/01/16 05:30:25;;;;;;;72.38;35.00;;;-4.70;99.90;;;;;;4853752;29;20054;-80
2022/01/16 05:33:12;;;;;;;70.57;35.20;;;-4.80;99.90;;;;;;4854769;29;20141;-81
2022/01/16 05:36:00;;;;;;;72.25;35.72;;;-4.80;99.90;;;;;;4835943;29;20057;-80
2022/01/16 05:38:48;;;;;;;76.72;34.92;;;-4.80;99.90;;;;;;4853912;29;20078;-79
2022/01/16 05:41:35;;;;;;;80.25;36.83;;;-4.90;99.90;;;;;;4836843;29;20058;-79
2022/01/16 05:44:27;;;;;;;70.80;34.78;;;-4.90;99.90;;;;;;4846797;29;20169;-79
2022/01/16 05:47:14;;;;;;;77.07;35.58;;;-4.90;99.90;;;;;;4862580;29;20061;-80
2022/01/16 05:50:04;;;;;;;78.93;36.13;;;-4.90;99.90;;;;;;4849697;29;20064;-81
2022/01/16 05:53:06;;;;;;;78.05;36.78;;;-4.90;99.90;;;;;;4864831;29;20095;-79
2022/01/16 05:55:53;;;;;;;73.65;34.67;;;-4.90;99.90;;;;;;4860469;29;20136;-79
2022/01/16 05:58:41;;;;;;;74.97;35.72;;;-5.00;99.90;;;;;;4846420;29;20372;-79
2022/01/16 06:01:28;;;;;;;67.93;34.80;;;-5.10;99.90;;;;;;4835492;29;20098;-78
2022/01/16 06:04:17;;;;;;;69.25;35.30;;;-5.10;99.90;;;;;;4860963;29;20046;-79
2022/01/16 06:07:07;;;;;;;69.05;37.45;;;-5.10;99.90;;;;;;4837818;29;20121;-79
2022/01/16 06:09:56;;;;;;;78.68;36.17;;;-5.10;99.90;;;;;;4843928;29;20061;-80
2022/01/16 06:12:44;;;;;;;76.75;37.40;;;-5.00;99.90;;;;;;4859466;29;20106;-79
2022/01/16 06:15:36;;;;;;;76.93;36.45;;;-5.00;99.90;;;;;;4865321;29;20046;-80
2022/01/16 06:18:23;;;;;;;74.30;35.25;;;-5.00;99.90;;;;;;4858265;29;20475;-79
2022/01/16 06:21:11;;;;;;;80.65;37.33;;;-4.90;99.90;;;;;;4850459;29;20090;-81
2022/01/16 06:24:04;;;;;;;74.75;33.85;;;-4.90;99.90;;;;;;4836443;29;20060;-80
2022/01/16 06:26:54;;;;;;;75.93;37.00;;;-5.00;99.90;;;;;;4832153;29;20053;-80
2022/01/16 06:29:43;;;;;;;75.60;34.65;;;-4.90;99.90;;;;;;4858644;29;20061;-82
2022/01/16 06:32:32;;;;;;;67.50;33.55;;;-4.90;99.90;;;;;;4859551;29;20075;-80
2022/01/16 06:35:23;;;;;;;68.85;34.03;;;-4.90;99.90;;;;;;4864166;29;20082;-79
2022/01/16 06:38:11;;;;;;;73.85;33.70;;;-4.90;99.90;;;;;;4862257;29;20069;-80
2022/01/16 06:41:02;;;;;;;76.75;36.75;;;-4.90;99.90;;;;;;4845714;29;20096;-80
2022/01/16 06:43:50;;;;;;;71.43;35.95;;;-4.90;99.90;;;;;;4856621;29;20049;-81
2022/01/16 06:46:40;;;;;;;79.80;35.63;;;-4.90;99.90;;;;;;4849604;29;20060;-79
2022/01/16 06:49:31;;;;;;;76.07;34.65;;;-4.80;99.90;;;;;;4860248;29;20049;-83
2022/01/16 06:52:24;;;;;;;73.82;35.83;;;-4.70;99.90;;;;;;4824188;29;20577;-80
2022/01/16 06:55:11;;;;;;;74.85;37.85;;;-4.70;99.90;;;;;;4828113;29;20061;-79
2022/01/16 06:58:01;;;;;;;76.05;37.65;;;-4.70;99.90;;;;;;4834691;29;20054;-80
2022/01/16 07:00:49;;;;;;;84.25;37.72;;;-4.70;99.90;;;;;;4847809;29;20050;-80
2022/01/16 07:03:37;;;;;;;68.00;36.08;;;-4.80;99.90;;;;;;4832915;29;20046;-80
2022/01/16 07:06:25;;;;;;;69.93;35.20;;;-4.80;99.90;;;;;;4844711;29;20148;-78
2022/01/16 07:09:12;;;;;;;78.60;38.50;;;-4.70;99.90;;;;;;4831465;29;20148;-78
2022/01/16 07:12:00;;;;;;;66.70;33.47;;;-4.60;99.90;;;;;;4857033;29;20140;-81
2022/01/16 07:14:48;;;;;;;65.32;32.17;;;-4.50;99.90;;;;;;4846349;29;20054;-79
2022/01/16 07:17:53;;;;;;;74.70;34.97;;;-4.30;99.90;;;;;;4845793;29;20515;-79
2022/01/16 07:20:40;;;;;;;65.50;31.83;;;-3.80;99.90;;;;;;4841063;29;20117;-80
2022/01/16 07:23:28;;;;;;;70.03;33.92;;;-3.50;99.90;;;;;;4850265;29;20057;-81
2022/01/16 07:26:17;;;;;;;68.72;33.15;;;-3.50;99.90;;;;;;4823124;29;20064;-83
2022/01/16 07:29:05;;;;;;;69.72;33.03;;;-3.50;99.90;;;;;;4848486;29;20113;-81
2022/01/16 07:31:52;;;;;;;65.95;32.35;;;-3.40;99.90;;;;;;4822549;29;20141;-82
2022/01/16 07:34:40;;;;;;;67.50;32.63;;;-3.50;99.90;;;;;;4840579;29;20126;-81
2022/01/16 07:37:27;;;;;;;69.47;32.97;;;-3.40;99.90;;;;;;4837575;29;20053;-82
2022/01/16 07:40:15;;;;;;;63.95;31.92;;;-3.50;99.90;;;;;;4835292;29;20137;-80
2022/01/16 07:43:03;;;;;;;67.22;32.15;;;-3.50;99.90;;;;;;4851953;29;20751;-81
2022/01/16 07:45:51;;;;;;;71.22;33.22;;;-3.50;99.90;;;;;;4860759;29;20064;-81
2022/01/16 07:48:39;;;;;;;78.78;33.75;;;-3.50;99.90;;;;;;4850887;29;20068;-82
2022/01/16 07:51:26;;;;;;;76.60;35.70;;;-2.90;99.90;;;;;;4848164;29;20045;-82
2022/01/16 07:54:13;;;;;;;77.35;35.40;;;-2.40;99.90;;;;;;4850587;29;20125;-81
2022/01/16 08:05:44;;;;;;;67.78;32.33;;;-1.60;99.90;;;;;;4859643;29;20073;-81
2022/01/16 08:08:31;;;;;;;68.40;31.48;;;-1.40;99.90;;;;;;4836658;29;20101;-82
2022/01/16 08:11:18;;;;;;;67.65;32.50;;;-1.40;99.40;;;;;;4834952;29;20053;-80
2022/01/16 08:14:06;;;;;;;62.90;31.30;;;-1.30;99.30;;;;;;4827600;29;20188;-79
2022/01/16 08:17:04;;;;;;;63.55;30.65;;;-1.30;95.50;;;;;;4844017;29;20053;-81
2022/01/16 08:58:14;;;;;;;54.97;26.63;;;0.50;1.00;;;;;;4876330;29;20042;-80
2022/01/16 09:14:18;;;;;;;44.97;24.50;;;1.00;99.90;;;;;;4877445;29;20021;-81
2022/01/16 09:17:05;;;;;;;53.92;26.73;;;0.90;99.90;;;;;;4879598;29;20052;-83
2022/01/16 09:19:59;;;;;;;50.90;26.27;;;0.90;99.90;;;;;;4866181;29;20428;-81
2022/01/16 09:22:49;;;;;;;48.58;26.23;;;0.90;99.90;;;;;;4865583;29;20417;-81
2022/01/16 09:25:53;;;;;;;48.22;25.35;;;1.10;99.90;;;;;;4868903;29;20150;-81
2022/01/16 09:28:46;;;;;;;40.07;21.50;;;1.30;99.90;;;;;;4892206;29;20163;-79
2022/01/16 09:31:34;;;;;;;51.85;26.85;;;1.40;99.90;;;;;;4886384;29;20053;-81
2022/01/16 09:34:24;;;;;;;48.58;25.45;;;1.40;99.90;;;;;;4867505;29;20052;-81
2022/01/16 09:37:14;;;;;;;50.50;24.95;;;1.40;99.90;;;;;;4868251;29;20041;-80
2022/01/16 09:40:03;;;;;;;45.95;23.15;;;1.60;99.90;;;;;;4871146;29;20109;-78
2022/01/16 09:43:03;;;;;;;45.30;24.05;;;1.80;99.90;;;;;;4856922;29;20057;-80
2022/01/16 09:46:03;;;;;;;43.83;23.35;;;2.20;99.90;;;;;;4870422;29;20141;-79
2022/01/16 09:48:50;;;;;;;41.65;23.05;;;2.70;99.90;;;;;;4867313;29;20057;-79
2022/01/16 09:52:02;;;;;;;40.05;22.90;;;3.50;99.90;;;;;;4880730;29;20049;-78
2022/01/16 09:54:53;;;;;;;38.92;21.33;;;4.20;99.90;;;;;;4868268;29;20143;-79
2022/01/16 09:57:40;;;;;;;37.13;21.80;;;4.70;99.90;;;;;;4882663;29;20053;-79
2022/01/16 10:00:28;;;;;;;38.88;21.80;;;5.10;99.90;;;;;;4873691;29;20109;-79
2022/01/16 10:03:46;;;;;;;35.65;21.77;;;5.30;99.90;;;;;;4860786;29;20057;-80
2022/01/16 10:06:33;;;;;;;33.97;21.02;;;5.70;99.90;;;;;;4882604;29;20409;-80
2022/01/16 10:09:20;;;;;;;36.45;20.38;;;6.00;99.90;;;;;;4881194;29;20060;-81
2022/01/16 10:12:16;;;;;;;34.55;20.92;;;6.80;99.40;;;;;;4865547;29;20071;-80
2022/01/16 10:15:28;;;;;;;34.65;20.85;;;7.00;96.20;;;;;;4884315;29;20048;-80
2022/01/16 10:18:39;;;;;;;35.53;20.60;;;7.50;93.80;;;;;;4867844;29;20128;-82
2022/01/16 10:21:42;;;;;;;32.63;19.75;;;7.30;91.60;;;;;;4868453;29;20052;-81
2022/01/16 10:24:44;;;;;;;35.85;20.95;;;6.90;93.60;;;;;;4856432;29;20101;-81
2022/01/16 10:27:40;;;;;;;32.75;19.40;;;7.40;92.70;;;;;;4882554;29;20399;-82
2022/01/16 10:30:57;;;;;;;36.85;21.13;;;7.90;90.20;;;;;;4867363;29;20056;-81
2022/01/16 10:33:55;;;;;;;31.75;19.92;;;8.30;88.60;;;;;;4878792;29;20057;-81
2022/01/16 10:36:46;;;;;;;35.33;21.55;;;8.20;87.20;;;;;;4878259;29;20076;-81
2022/01/16 10:40:00;;;;;;;33.08;20.98;;;8.50;86.00;;;;;;4876876;29;20550;-82
2022/01/16 10:42:53;;;;;;;33.58;20.77;;;9.00;83.50;;;;;;4870378;29;20056;-80
2022/01/16 10:53:32;;;;;;;30.55;19.25;;;9.00;79.80;;;;;;4891290;29;20072;-81
2022/01/16 10:56:35;;;;;;;28.75;19.20;;;9.20;80.00;;;;;;4866909;29;20057;-81
2022/01/16 10:59:25;;;;;;;31.65;20.33;;;10.00;76.30;;;;;;4861044;29;20461;-81
2022/01/16 11:02:15;;;;;;;28.83;19.77;;;9.70;75.30;;;;;;4884814;29;20120;-81
2022/01/16 11:05:31;;;;;;;32.15;20.00;;;9.20;75.80;;;;;;4876622;29;20052;-80
2022/01/16 11:08:27;;;;;;;28.92;19.67;;;9.10;76.80;;;;;;4853826;29;20156;-79
2022/01/16 11:11:21;;;;;;;34.38;20.40;;;9.50;76.50;;;;;;4889760;29;20052;-82
2022/01/16 11:14:09;;;;;;;31.15;20.42;;;9.90;76.00;;;;;;4879738;29;20088;-83
2022/01/16 11:17:07;;;;;;;29.17;19.13;;;11.00;71.10;;;;;;4877155;29;20045;-82
2022/01/16 11:19:55;;;;;;;30.48;19.67;;;11.30;67.50;;;;;;4857527;29;20489;-82
2022/01/16 11:22:57;;;;;;;28.27;19.60;;;11.10;68.10;;;;;;4844370;29;20052;-82
2022/01/16 11:26:00;;;;;;;28.73;19.80;;;11.30;67.10;;;;;;4872625;29;20048;-81
2022/01/16 11:28:59;;;;;;;34.22;21.88;;;9.80;70.20;;;;;;4863465;29;20515;-80
2022/01/16 11:31:56;;;;;;;33.80;21.92;;;7.80;77.90;;;;;;4870151;29;20049;-78
2022/01/16 11:34:45;;;;;;;37.25;22.95;;;6.60;85.90;;;;;;4857733;29;20127;-80
2022/01/16 11:37:37;;;;;;;38.70;24.98;;;6.20;90.70;;;;;;4879770;29;20080;-81
2022/01/16 11:40:51;;;;;;;37.25;23.15;;;6.90;90.00;;;;;;4870206;29;20148;-79
2022/01/16 11:43:53;;;;;;;36.53;22.35;;;7.00;88.20;;;;;;4889504;29;20029;-81
2022/01/16 11:46:56;;;;;;;36.00;22.27;;;6.70;90.50;;;;;;4873519;29;20064;-81
2022/01/16 11:49:43;;;;;;;;;;;6.80;91.10;;;;;;4876231;29;20056;-81
2022/01/16 11:52:48;;;;;;;36.20;21.83;;;7.20;89.60;;;;;;4861676;29;19924;-82
2022/01/16 11:55:35;;;;;;;35.72;22.30;;;7.30;89.70;;;;;;4862308;29;20049;-83
2022/01/16 11:58:23;;;;;;;34.20;21.33;;;7.40;91.20;;;;;;4890281;29;20053;-80
2022/01/16 12:02:04;;;;;;;32.45;21.33;;;8.60;89.70;;;;;;4876300;29;20393;-80
2022/01/16 12:04:59;;;;;;;27.90;19.08;;;10.10;81.10;;;;;;4843372;29;20375;-81
2022/01/16 12:08:15;;;;;;;26.83;18.73;;;11.50;74.70;;;;;;4859288;29;20137;-80
2022/01/16 12:11:44;;;;;;;27.05;19.38;;;12.90;66.60;;;;;;4867000;29;20041;-81
2022/01/16 12:14:58;;;;;;;31.08;21.05;;;12.50;64.60;;;;;;4872253;29;20100;-81
2022/01/16 12:17:49;;;;;;;32.25;21.55;;;11.20;68.80;;;;;;4889728;29;20200;-81
2022/01/16 12:20:59;;;;;;;31.77;21.58;;;10.30;72.10;;;;;;4870892;29;20040;-80
2022/01/16 12:23:50;;;;;;;34.20;22.45;;;9.20;77.00;;;;;;4861860;29;20061;-81
2022/01/16 12:26:48;;;;;;;39.58;24.80;;;7.90;83.70;;;;;;4863639;29;20068;-81
2022/01/16 12:30:20;;;;;;;35.30;22.58;;;6.90;90.70;;;;;;4846398;29;20057;-79
2022/01/16 12:33:15;;;;;;;32.10;19.50;;;6.20;93.70;;;;;;4881420;29;20056;-81
2022/01/16 12:36:23;;;;;;;33.45;20.45;;;5.50;98.40;;;;;;4873686;29;20453;-80
2022/01/16 12:39:15;;;;;;;33.35;19.52;;;5.10;99.90;;;;;;4862456;29;20466;-80
2022/01/16 12:42:03;;;;;;;37.85;20.25;;;4.90;99.90;;;;;;4866987;29;20045;-78
2022/01/16 12:44:53;;;;;;;38.33;20.33;;;4.50;99.90;;;;;;4872748;29;20057;-80
2022/01/16 12:47:43;;;;;;;39.42;20.88;;;4.10;99.90;;;;;;4883101;29;20049;-78
2022/01/16 12:50:30;;;;;;;36.17;20.05;;;3.60;26.10;;;;;;4893547;29;20058;-83
2022/01/16 12:53:41;;;;;;;39.05;21.15;;;3.30;99.90;;;;;;4884358;29;20056;-79
2022/01/16 12:56:38;;;;;;;38.40;21.05;;;3.10;99.90;;;;;;4885909;29;20045;-80
2022/01/16 12:59:51;;;;;;;39.63;21.05;;;3.00;99.90;;;;;;4906220;29;20053;-79
2022/01/16 13:02:41;;;;;;;38.22;20.67;;;3.10;99.90;;;;;;4878877;29;20120;-79
2022/01/16 13:05:31;;;;;;;37.28;20.17;;;3.10;99.90;;;;;;4878854;29;20052;-79
2022/01/16 13:08:18;;;;;;;36.53;19.35;;;3.00;99.90;;;;;;4881129;29;20057;-79
2022/01/16 13:11:18;;;;;;;34.83;19.13;;;3.00;99.90;;;;;;4878831;29;20068;-80
2022/01/16 13:14:13;;;;;;;37.15;18.50;;;3.00;99.90;;;;;;4871097;29;20439;-79
2022/01/16 13:17:12;;;;;;;30.17;16.73;;;2.90;99.90;;;;;;4899600;29;20045;-79
2022/01/16 13:20:02;;;;;;;30.90;15.90;;;2.90;99.90;;;;;;4886062;29;20081;-80
2022/01/16 13:22:49;;;;;;;34.97;18.20;;;2.80;99.90;;;;;;4899628;29;20029;-80
2022/01/16 13:25:40;;;;;;;32.03;17.23;;;2.80;99.90;;;;;;4888106;29;20061;-80
2022/01/16 13:28:28;;;;;;;31.08;16.85;;;2.70;99.90;;;;;;4877221;29;20068;-79
2022/01/16 13:31:15;;;;;;;25.38;14.32;;;2.70;99.90;;;;;;4889214;29;20068;-79
2022/01/16 13:34:13;;;;;;;25.33;13.07;;;2.70;99.90;;;;;;4899269;29;20085;-79
2022/01/16 13:37:02;;;;;;;17.48;9.93;;;2.70;99.90;;;;;;4891096;29;20029;-81
2022/01/16 13:39:51;;;;;;;24.23;12.13;;;2.70;99.90;;;;;;4871827;29;20053;-80
2022/01/16 13:42:50;;;;;;;25.33;14.25;;;2.60;99.90;;;;;;4884012;29;20053;-79
2022/01/16 13:45:42;;;;;;;24.13;14.13;;;2.70;99.90;;;;;;4910043;29;20116;-80
2022/01/16 13:48:32;;;;;;;25.65;15.10;;;2.70;99.90;;;;;;4884229;29;20057;-80
2022/01/16 13:51:20;;;;;;;27.15;14.32;;;2.70;99.90;;;;;;4893817;29;20081;-83
2022/01/16 13:54:11;;;;;;;26.17;15.00;;;2.70;99.90;;;;;;4888120;29;20041;-77
2022/01/16 13:57:00;;;;;;;26.23;15.57;;;2.60;99.90;;;;;;4870016;29;20060;-80
2022/01/16 14:00:01;;;;;;;26.73;14.70;;;2.70;99.90;;;;;;4882255;29;20102;-80
2022/01/16 14:03:08;;;;;;;;;;;2.70;99.90;;;;;;4867536;29;20180;-78
2022/01/16 14:05:57;;;;;;;22.60;14.00;;;2.60;99.90;;;;;;4890765;29;19963;-80
2022/01/16 14:09:00;;;;;;;27.98;15.57;;;2.50;99.90;;;;;;4876428;29;20105;-81
2022/01/16 14:11:50;;;;;;;28.60;16.08;;;2.30;99.90;;;;;;4880699;29;20132;-83
2022/01/16 14:14:40;;;;;;;23.60;13.48;;;2.30;99.90;;;;;;4878338;29;20053;-79
2022/01/16 14:17:42;;;;;;;26.77;15.00;;;2.20;99.90;;;;;;4903220;29;20057;-81
2022/01/16 14:20:48;;;;;;;27.55;14.68;;;2.30;99.90;;;;;;4876669;29;20104;-80
2022/01/16 14:23:35;;;;;;;28.42;15.00;;;2.30;99.90;;;;;;4873695;29;20048;-81
2022/01/16 14:26:24;;;;;;;31.23;15.93;;;2.30;99.90;;;;;;4878573;29;20049;-78
2022/01/16 14:29:16;;;;;;;26.13;15.32;;;2.40;99.90;;;;;;4860206;29;20049;-80
2022/01/16 14:32:03;;;;;;;28.73;16.27;;;2.30;99.90;;;;;;4879778;29;20057;-80
2022/01/16 14:34:53;;;;;;;27.45;16.33;;;2.30;99.90;;;;;;4855129;29;20261;-80
2022/01/16 14:37:41;;;;;;;29.73;15.80;;;2.20;99.90;;;;;;4864090;29;20471;-80
2022/01/16 14:40:29;;;;;;;38.30;18.55;;;2.20;99.90;;;;;;4859494;29;20332;-80
2022/01/16 14:43:20;;;;;;;28.98;15.63;;;2.20;99.90;;;;;;4864388;29;20121;-80
2022/01/16 14:46:14;;;;;;;24.15;14.40;;;2.20;99.90;;;;;;4864275;29;20469;-79
2022/01/16 14:49:08;;;;;;;22.85;13.27;;;2.30;99.90;;;;;;4878770;29;20047;-79
2022/01/16 14:51:57;;;;;;;27.05;15.20;;;2.30;99.90;;;;;;4867085;29;20059;-80
2022/01/16 14:55:07;;;;;;;26.95;14.77;;;2.30;99.90;;;;;;4874712;29;20057;-81
2022/01/16 14:57:55;;;;;;;28.13;16.70;;;2.20;99.90;;;;;;4890040;29;20063;-82
2022/01/16 15:00:43;;;;;;;31.30;17.75;;;2.20;99.90;;;;;;4842802;29;20069;-80
2022/01/16 15:03:33;;;;;;;29.27;16.27;;;2.20;99.90;;;;;;4873576;29;20089;-80
2022/01/16 15:06:21;;;;;;;35.95;19.10;;;2.20;99.90;;;;;;4874074;29;20060;-79
2022/01/16 15:09:10;;;;;;;37.55;19.08;;;2.20;99.90;;;;;;4866116;29;20049;-80
2022/01/16 15:11:58;;;;;;;31.77;18.00;;;2.20;99.90;;;;;;4875565;29;20056;-80
2022/01/16 15:14:46;;;;;;;33.80;17.88;;;2.20;99.90;;;;;;4880712;29;20197;-79
2022/01/16 15:17:42;;;;;;;32.25;15.32;;;2.20;99.90;;;;;;4878989;29;20136;-79
2022/01/16 15:20:32;;;;;;;33.03;17.88;;;2.20;99.90;;;;;;4855190;29;20194;-80
2022/01/16 15:23:41;;;;;;;43.20;22.33;;;2.20;99.90;;;;;;4883752;29;20379;-79
2022/01/16 15:26:32;;;;;;;35.58;19.60;;;2.10;99.90;;;;;;4865448;29;20090;-79
2022/01/16 15:29:23;;;;;;;39.75;19.75;;;2.10;99.90;;;;;;4867132;29;20053;-81
2022/01/16 15:32:11;;;;;;;27.20;13.70;;;2.10;99.90;;;;;;4879212;29;20148;-80
2022/01/16 15:34:59;;;;;;;37.78;20.80;;;2.10;99.90;;;;;;4864557;29;20049;-82
2022/01/16 15:37:53;;;;;;;30.35;15.65;;;2.10;99.90;;;;;;4880045;29;20049;-80
2022/01/16 15:40:44;;;;;;;26.42;14.45;;;2.10;99.90;;;;;;4866146;29;20056;-80
2022/01/16 15:43:31;;;;;;;26.70;15.13;;;2.10;99.90;;;;;;4876222;29;20112;-80
2022/01/16 15:46:19;;;;;;;26.88;14.77;;;2.10;99.90;;;;;;4867053;29;20088;-80
2022/01/16 15:49:08;;;;;;;30.83;16.38;;;2.00;99.90;;;;;;4877637;29;20670;-80
2022/01/16 15:51:55;;;;;;;27.73;15.38;;;2.00;99.90;;;;;;4875981;29;20048;-80
2022/01/16 15:54:43;;;;;;;31.90;17.58;;;2.00;99.90;;;;;;4865775;29;20071;-83
2022/01/16 15:57:33;;;;;;;32.15;16.80;;;2.00;99.90;;;;;;4877891;29;20052;-79
2022/01/16 16:00:22;;;;;;;28.52;15.75;;;2.00;99.90;;;;;;4864706;29;20208;-79
2022/01/16 16:03:12;;;;;;;34.05;18.10;;;2.00;99.90;;;;;;4869704;29;20057;-80
2022/01/16 16:06:00;;;;;;;50.83;23.00;;;2.00;99.90;;;;;;4855891;29;20062;-81
2022/01/16 16:08:47;;;;;;;31.58;16.40;;;2.00;99.90;;;;;;4881144;29;20059;-78
2022/01/16 16:11:37;;;;;;;36.42;17.45;;;2.00;99.90;;;;;;4879504;29;20103;-79
2022/01/16 16:14:25;;;;;;;42.78;19.10;;;2.00;99.90;;;;;;4867895;29;20048;-79
2022/01/16 16:17:13;;;;;;;35.88;16.40;;;2.10;99.90;;;;;;4855383;29;20049;-80
2022/01/16 16:20:02;;;;;;;26.65;13.50;;;2.10;99.90;;;;;;4878908;29;20166;-80
2022/01/16 16:22:51;;;;;;;21.95;13.18;;;2.00;99.90;;;;;;4877043;29;20049;-79
2022/01/16 16:25:39;;;;;;;23.70;12.10;;;2.00;99.90;;;;;;4868088;29;20042;-81
2022/01/16 16:28:27;;;;;;;20.52;12.85;;;2.00;99.90;;;;;;4852901;29;20060;-81